Time;durP1;ratioP1;P1;durP2;ratioP2;P2;SDS_P1;SDS_P2;PMS_P1;PMS_P2;Temp;Humidity;BMP_temperature;BMP_pressure;BME280_temperature;BME280_humidity;BME280_pressure;Samples;Min_cycle;Max_cycle;Signal;HPM_P1;HPM_P2
2023/06/11 00:01:18;;;;;;;8.20;4.28;;;;;;;-143.48;45.70;118439.88;5033471;28;20077;-75
2023/06/11 00:03:46;;;;;;;6.80;4.40;;;;;;;-143.48;45.75;118439.88;5015515;28;20041;-75
2023/06/11 00:06:12;;;;;;;8.23;4.15;;;;;;;-143.48;45.53;118439.88;5015764;28;20020;-75
2023/06/11 00:08:37;;;;;;;8.00;4.32;;;;;;;-143.48;46.19;118439.88;5015709;28;20021;-75
2023/06/11 00:11:03;;;;;;;9.10;4.07;;;;;;;-143.48;46.39;118439.88;5015769;28;20075;-75
2023/06/11 00:13:28;;;;;;;10.73;4.45;;;;;;;-143.48;46.05;118439.88;5015718;28;20079;-75
2023/06/11 00:15:54;;;;;;;6.88;4.35;;;;;;;-143.48;46.35;118439.88;5015577;28;20485;-75
2023/06/11 00:18:19;;;;;;;10.32;4.05;;;;;;;-143.48;46.79;118439.88;5033211;28;20036;-75
2023/06/11 00:20:46;;;;;;;12.48;4.55;;;;;;;-143.48;46.65;118439.88;5033309;28;20108;-74
2023/06/11 00:23:11;;;;;;;8.30;4.50;;;;;;;-143.48;47.42;118439.88;5015502;28;20041;-74
2023/06/11 00:25:37;;;;;;;12.15;4.30;;;;;;;-143.48;47.27;118439.88;5033219;28;20052;-74
2023/06/11 00:28:02;;;;;;;8.10;4.15;;;;;;;-143.48;47.17;118439.88;5015398;28;20093;-74
2023/06/11 00:30:29;;;;;;;9.73;4.35;;;;;;;-143.48;47.66;118439.88;5033041;28;20056;-73
2023/06/11 00:32:54;;;;;;;9.18;4.60;;;;;;;-143.48;47.71;118439.88;5015455;28;20017;-73
2023/06/11 00:35:20;;;;;;;10.13;4.70;;;;;;;-143.48;47.98;118439.88;5032911;28;20022;-73
2023/06/11 00:37:47;;;;;;;10.10;4.50;;;;;;;-143.48;48.77;118439.88;5015246;28;20033;-73
2023/06/11 00:40:12;;;;;;;15.00;4.80;;;;;;;-143.48;48.39;118439.88;5015323;28;20017;-73
2023/06/11 00:42:38;;;;;;;7.47;4.68;;;;;;;-143.48;48.39;118439.88;5015195;28;20033;-74
2023/06/11 00:45:03;;;;;;;7.93;4.45;;;;;;;-143.48;48.73;118439.88;5015343;28;20014;-74
2023/06/11 00:47:29;;;;;;;10.90;4.68;;;;;;;-143.48;48.48;118439.88;5015150;28;20132;-74
2023/06/11 00:49:56;;;;;;;7.25;4.57;;;;;;;-143.48;48.73;118439.88;5032874;28;20032;-74
2023/06/11 00:52:22;;;;;;;7.82;4.90;;;;;;;-143.48;49.53;118439.88;5015137;28;20116;-74
2023/06/11 00:54:47;;;;;;;9.13;4.55;;;;;;;-143.48;49.25;118439.88;5032778;28;20036;-74
2023/06/11 00:57:17;;;;;;;11.35;4.90;;;;;;;-143.48;49.53;118439.88;5015136;28;20421;-74
2023/06/11 00:59:47;;;;;;;10.95;4.70;;;;;;;-143.48;49.85;118439.88;5015149;28;20370;-73
2023/06/11 01:02:21;;;;;;;8.93;4.88;;;;;;;-143.48;49.36;118439.88;5014943;28;20046;-74
2023/06/11 01:04:51;;;;;;;8.88;4.80;;;;;;;-143.48;50.20;118439.88;5015123;28;20107;-73
2023/06/11 01:07:16;;;;;;;9.63;4.75;;;;;;;-143.48;49.61;118439.88;5032967;28;20476;-74
2023/06/11 01:09:43;;;;;;;12.65;4.93;;;;;;;-143.48;49.89;118439.88;5015039;28;20032;-74
2023/06/11 01:12:09;;;;;;;9.85;4.95;;;;;;;-143.48;50.71;118439.88;5032658;28;20033;-74
2023/06/11 01:14:35;;;;;;;14.70;4.95;;;;;;;-143.48;50.80;118439.88;5032659;28;20461;-74
2023/06/11 01:17:09;;;;;;;10.07;5.18;;;;;;;-143.48;49.87;118439.88;5017934;28;20429;-75
2023/06/11 01:19:37;;;;;;;6.93;4.90;;;;;;;-143.48;50.26;118439.88;5036486;28;20025;-74
2023/06/11 01:22:41;;;;;;;8.45;4.68;;;;;;;-143.48;51.04;118439.88;5018692;28;20059;-74
2023/06/11 01:25:44;;;;;;;8.45;5.20;;;;;;;-143.48;51.17;118439.88;5015711;28;20033;-74
2023/06/11 01:28:12;;;;;;;10.48;5.13;;;;;;;-143.48;51.61;118439.88;5033647;28;20108;-74
2023/06/11 01:30:40;;;;;;;9.10;4.88;;;;;;;-143.48;51.87;118439.88;5018399;28;20017;-74
2023/06/11 01:33:08;;;;;;;8.93;4.90;;;;;;;-143.48;52.44;118439.88;5018510;28;20068;-74
2023/06/11 01:35:34;;;;;;;9.82;4.80;;;;;;;-143.48;53.54;118439.88;5036176;28;20026;-74
2023/06/11 01:38:00;;;;;;;13.13;4.90;;;;;;;-143.48;52.69;118439.88;5036230;28;20028;-74
2023/06/11 01:40:27;;;;;;;9.98;5.45;;;;;;;-143.48;52.42;118439.88;5018418;28;20108;-74
2023/06/11 01:42:53;;;;;;;9.88;5.03;;;;;;;-143.48;52.07;118439.88;5036290;28;20051;-74
2023/06/11 01:45:21;;;;;;;12.35;5.22;;;;;;;-143.48;51.89;118439.88;5036050;28;20450;-75
2023/06/11 01:47:48;;;;;;;10.13;5.30;;;;;;;-143.48;52.19;118439.88;5035953;28;20021;-73
2023/06/11 01:50:14;;;;;;;9.10;5.18;;;;;;;-143.48;52.70;118439.88;5018157;28;20029;-74
2023/06/11 01:52:40;;;;;;;9.90;4.97;;;;;;;-143.48;54.82;118439.88;5035820;28;20029;-74
2023/06/11 01:55:07;;;;;;;10.77;5.30;;;;;;;-143.48;53.77;118439.88;5017954;28;20476;-74
2023/06/11 01:57:32;;;;;;;7.47;4.75;;;;;;;-143.48;54.44;118439.88;5035612;28;20036;-74
2023/06/11 01:59:58;;;;;;;8.60;5.05;;;;;;;-143.48;54.41;118439.88;5017932;28;20021;-74
2023/06/11 02:02:23;;;;;;;12.10;5.32;;;;;;;-143.48;54.31;118439.88;5035600;28;20556;-74
2023/06/11 02:04:49;;;;;;;7.03;5.03;;;;;;;-143.48;54.38;118439.88;5035619;28;20032;-74
2023/06/11 02:07:14;;;;;;;11.55;5.22;;;;;;;-143.48;54.52;118439.88;5017884;28;20481;-74
2023/06/11 02:09:40;;;;;;;9.77;4.90;;;;;;;-143.48;54.75;118439.88;5001505;28;20049;-74
2023/06/11 02:12:06;;;;;;;13.13;5.70;;;;;;;-143.48;54.79;118439.88;5017737;28;20040;-74
2023/06/11 02:14:31;;;;;;;13.10;5.43;;;;;;;-143.48;55.41;118439.88;5017811;28;20029;-74
2023/06/11 02:16:56;;;;;;;7.82;5.20;;;;;;;-143.48;55.58;118439.88;5017737;28;20503;-74
2023/06/11 02:19:22;;;;;;;13.13;5.50;;;;;;;-143.48;55.68;118439.88;5035640;28;20112;-74
2023/06/11 02:21:47;;;;;;;9.07;5.15;;;;;;;-143.48;55.56;118439.88;5017765;28;20468;-74
2023/06/11 02:24:12;;;;;;;11.13;5.90;;;;;;;-143.48;55.71;118439.88;5035476;28;20036;-74
2023/06/11 02:26:38;;;;;;;13.40;5.70;;;;;;;-143.48;57.02;118439.88;5035318;28;20436;-74
2023/06/11 02:29:03;;;;;;;8.27;5.50;;;;;;;-143.48;57.28;118439.88;5035332;28;20059;-75
2023/06/11 02:31:28;;;;;;;9.20;5.20;;;;;;;-143.48;57.97;118439.88;5035396;28;20108;-75
2023/06/11 02:33:54;;;;;;;8.13;5.40;;;;;;;-143.48;58.25;118439.88;5017551;28;20033;-74
2023/06/11 02:36:19;;;;;;;10.63;5.18;;;;;;;-143.48;58.98;118439.88;5017483;28;20026;-75
2023/06/11 02:38:44;;;;;;;10.18;5.65;;;;;;;-143.48;58.32;118439.88;5017433;28;20168;-74
2023/06/11 02:41:10;;;;;;;9.68;5.63;;;;;;;-143.48;59.29;118439.88;5017377;28;20444;-74
2023/06/11 02:43:35;;;;;;;10.18;5.53;;;;;;;-143.48;59.14;118439.88;5035183;28;20029;-75
2023/06/11 02:46:00;;;;;;;8.60;5.65;;;;;;;-143.48;59.29;118439.88;5035045;28;20053;-74
2023/06/11 02:48:25;;;;;;;11.95;6.20;;;;;;;-143.48;59.09;118439.88;5034922;28;20481;-74
2023/06/11 02:50:51;;;;;;;10.02;6.00;;;;;;;-143.48;59.18;118439.88;5017125;28;20033;-75
2023/06/11 02:53:16;;;;;;;11.30;5.68;;;;;;;-143.48;60.18;118439.88;5017146;28;20032;-75
2023/06/11 02:55:41;;;;;;;9.52;6.20;;;;;;;-143.48;59.98;118439.88;5034833;28;20443;-74
2023/06/11 02:58:06;;;;;;;11.57;5.88;;;;;;;-143.48;59.57;118439.88;5034730;28;20040;-74
2023/06/11 03:00:32;;;;;;;17.13;6.38;;;;;;;-143.48;59.39;118439.88;5017002;28;20440;-74
2023/06/11 03:02:57;;;;;;;12.05;6.18;;;;;;;-143.48;59.91;118439.88;5034607;28;20073;-74
2023/06/11 03:05:22;;;;;;;11.45;6.18;;;;;;;-143.48;59.71;118439.88;5034783;28;20385;-75
2023/06/11 03:07:47;;;;;;;11.18;5.90;;;;;;;-143.48;59.66;118439.88;5016984;28;20041;-74
2023/06/11 03:10:13;;;;;;;11.27;6.28;;;;;;;-143.48;60.81;118439.88;5016883;28;20025;-75
2023/06/11 03:12:38;;;;;;;11.20;6.53;;;;;;;-143.48;59.54;118439.88;5016739;28;20048;-74
2023/06/11 03:15:04;;;;;;;13.50;6.65;;;;;;;-143.48;59.91;118439.88;5016602;28;20053;-74
2023/06/11 03:17:29;;;;;;;11.88;6.57;;;;;;;-143.48;59.44;118439.88;5034599;28;20112;-74
2023/06/11 03:19:55;;;;;;;12.13;6.47;;;;;;;-143.48;60.64;118439.88;5034434;28;20025;-75
2023/06/11 03:22:20;;;;;;;11.38;6.85;;;;;;;-143.48;59.25;118439.88;5034555;28;20036;-75
2023/06/11 03:24:45;;;;;;;13.63;6.55;;;;;;;-143.48;58.96;118439.88;5016523;28;20519;-75
2023/06/11 03:27:11;;;;;;;11.52;6.80;;;;;;;-143.48;59.92;118439.88;5016706;28;20109;-75
2023/06/11 03:29:36;;;;;;;10.93;6.93;;;;;;;-143.48;59.95;118439.88;5034450;28;20079;-75
2023/06/11 03:32:02;;;;;;;12.40;7.13;;;;;;;-143.48;60.51;118439.88;5034400;28;20491;-75
2023/06/11 03:34:27;;;;;;;10.10;7.15;;;;;;;-143.48;60.51;118439.88;5034047;28;20433;-75
2023/06/11 03:36:52;;;;;;;14.38;7.05;;;;;;;-143.48;60.02;118439.88;5034304;28;20022;-75
2023/06/11 03:39:17;;;;;;;11.65;6.68;;;;;;;-143.48;60.41;118439.88;5015784;28;20164;-75
2023/06/11 03:41:43;;;;;;;12.18;7.07;;;;;;;-143.48;61.05;118439.88;5034103;28;20029;-75
2023/06/11 03:44:08;;;;;;;11.95;6.90;;;;;;;-143.48;61.55;118439.88;5034066;28;20021;-75
2023/06/11 03:46:33;;;;;;;12.68;6.72;;;;;;;-143.48;62.45;118439.88;5016424;28;20036;-75
2023/06/11 03:49:00;;;;;;;12.38;7.15;;;;;;;-143.48;61.83;118439.88;5016259;28;20068;-74
2023/06/11 03:51:25;;;;;;;12.35;7.30;;;;;;;-143.48;61.82;118439.88;5034058;28;20142;-75
2023/06/11 03:53:51;;;;;;;19.55;7.45;;;;;;;-143.48;62.04;118439.88;5015927;28;20022;-75
2023/06/11 03:56:16;;;;;;;10.85;7.10;;;;;;;-143.48;62.12;118439.88;5033584;28;20032;-75
2023/06/11 03:58:42;;;;;;;12.05;7.13;;;;;;;-143.48;61.45;118439.88;5033715;28;20108;-75
2023/06/11 04:01:07;;;;;;;12.70;7.40;;;;;;;-143.48;62.33;118439.88;5016070;28;20029;-75
2023/06/11 04:03:32;;;;;;;13.30;7.43;;;;;;;-143.48;62.09;118439.88;5015928;28;20033;-75
2023/06/11 04:05:58;;;;;;;10.82;7.32;;;;;;;-143.48;62.73;118439.88;5015842;28;20017;-75
2023/06/11 04:08:23;;;;;;;12.48;7.90;;;;;;;-143.48;60.77;118439.88;5015766;28;20078;-75
2023/06/11 04:10:48;;;;;;;15.18;7.47;;;;;;;-143.48;61.58;118439.88;5015900;28;20032;-75
2023/06/11 04:13:13;;;;;;;12.77;7.82;;;;;;;-143.48;62.01;118439.88;5033733;28;20044;-74
2023/06/11 04:15:39;;;;;;;12.77;7.53;;;;;;;-143.48;61.77;118439.88;5033571;28;20033;-74
2023/06/11 04:18:04;;;;;;;17.77;7.90;;;;;;;-143.48;61.56;118439.88;5015698;28;20025;-74
2023/06/11 04:20:31;;;;;;;19.02;8.07;;;;;;;-143.48;62.44;118439.88;5033377;28;20029;-74
2023/06/11 04:22:57;;;;;;;12.10;8.40;;;;;;;-143.48;61.95;118439.88;5033353;28;20477;-74
2023/06/11 04:25:22;;;;;;;13.55;8.50;;;;;;;-143.48;62.09;118439.88;5033428;28;20024;-74
2023/06/11 04:27:48;;;;;;;14.85;8.23;;;;;;;-143.48;62.84;118439.88;5015603;28;20029;-74
2023/06/11 04:30:14;;;;;;;13.90;8.10;;;;;;;-143.48;63.10;118439.88;5033375;28;20025;-75
2023/06/11 04:32:40;;;;;;;12.50;8.25;;;;;;;-143.48;62.49;118439.88;5033278;28;20140;-75
2023/06/11 04:35:06;;;;;;;12.50;7.72;;;;;;;-143.48;62.69;118439.88;5033055;28;20516;-74
2023/06/11 04:37:38;;;;;;;12.70;7.90;;;;;;;-143.48;62.71;118439.88;5015487;28;20021;-76
2023/06/11 04:40:09;;;;;;;12.90;7.80;;;;;;;-143.48;63.47;118439.88;5033022;28;20032;-75
2023/06/11 04:42:36;;;;;;;12.13;8.00;;;;;;;-143.48;62.89;118439.88;5015344;28;20424;-76
2023/06/11 04:45:04;;;;;;;14.27;8.70;;;;;;;-143.48;63.73;118439.88;5015319;28;20052;-74
2023/06/11 04:47:32;;;;;;;12.52;8.77;;;;;;;-143.48;62.09;118439.88;5032851;28;20079;-74
2023/06/11 04:50:02;;;;;;;13.43;8.65;;;;;;;-143.48;62.36;118439.88;5015334;28;20026;-74
2023/06/11 04:52:28;;;;;;;23.55;8.65;;;;;;;-143.48;61.97;118439.88;5036869;28;20038;-74
2023/06/11 04:54:55;;;;;;;14.30;8.52;;;;;;;-143.48;62.46;118439.88;5019194;28;20056;-75
2023/06/11 04:57:23;;;;;;;13.55;8.50;;;;;;;-143.48;62.57;118439.88;5019212;28;20117;-75
2023/06/11 04:59:49;;;;;;;15.25;9.00;;;;;;;-143.48;62.31;118439.88;5019360;28;20026;-75
2023/06/11 05:02:15;;;;;;;12.15;8.40;;;;;;;-143.48;62.97;118439.88;5019068;28;20046;-75
2023/06/11 05:04:40;;;;;;;13.10;8.25;;;;;;;-143.48;61.83;118439.88;5037033;28;20032;-74
2023/06/11 05:07:07;;;;;;;16.63;8.90;;;;;;;-143.48;61.41;118439.88;5019079;28;20104;-74
2023/06/11 05:09:32;;;;;;;11.85;8.27;;;;;;;-143.48;63.32;118439.88;5036922;28;20104;-75
2023/06/11 05:11:58;;;;;;;14.27;8.48;;;;;;;-143.48;61.55;118439.88;5036883;28;20045;-75
2023/06/11 05:14:23;;;;;;;15.30;8.43;;;;;;;-143.48;60.50;118439.88;5018944;28;20017;-75
2023/06/11 05:16:50;;;;;;;15.07;8.20;;;;;;;-143.48;60.31;118439.88;5018869;28;20051;-75
2023/06/11 05:19:15;;;;;;;12.65;8.45;;;;;;;-143.48;58.98;118439.88;5018954;28;20052;-75
2023/06/11 05:21:41;;;;;;;12.52;8.55;;;;;;;-143.48;60.80;118439.88;5018874;28;20503;-75
2023/06/11 05:24:07;;;;;;;13.55;8.70;;;;;;;-143.48;59.38;118439.88;5018797;28;20049;-75
2023/06/11 05:26:35;;;;;;;12.07;8.10;;;;;;;-143.48;60.32;118439.88;5036511;28;20017;-75
2023/06/11 05:29:03;;;;;;;18.50;9.13;;;;;;;-143.48;59.19;118439.88;5018509;28;20073;-75
2023/06/11 05:31:29;;;;;;;13.93;8.93;;;;;;;-143.48;59.17;118439.88;5018639;28;20544;-74
2023/06/11 05:33:55;;;;;;;12.60;8.50;;;;;;;-143.48;54.45;118439.88;5018442;28;20017;-75
2023/06/11 05:36:21;;;;;;;17.55;8.50;;;;;;;-143.48;48.91;118439.88;5018452;28;20060;-75
2023/06/11 05:38:46;;;;;;;14.23;8.32;;;;;;;-143.48;44.83;118439.88;5018534;28;20494;-76
2023/06/11 05:41:12;;;;;;;11.20;7.68;;;;;;;-143.48;42.89;118439.88;5018446;28;20124;-75
2023/06/11 05:43:37;;;;;;;12.60;7.20;;;;;;;-143.48;41.07;118439.88;5018391;28;20091;-75
2023/06/11 05:46:02;;;;;;;8.43;6.63;;;;;;;-143.48;40.93;118439.88;5018280;28;20393;-75
2023/06/11 05:48:29;;;;;;;9.68;7.00;;;;;;;-143.48;39.33;118439.88;5036119;28;20021;-75
2023/06/11 05:50:54;;;;;;;11.18;6.70;;;;;;;-143.48;40.07;118439.88;5036227;28;20060;-75
2023/06/11 05:53:19;;;;;;;11.00;6.50;;;;;;;-143.48;39.89;118439.88;5018131;28;20091;-76
2023/06/11 05:55:45;;;;;;;12.15;6.50;;;;;;;-143.48;38.23;118439.88;5018037;28;20424;-76
2023/06/11 05:58:10;;;;;;;12.80;6.40;;;;;;;-143.48;38.92;118439.88;5018061;28;20034;-76
2023/06/11 06:00:35;;;;;;;7.55;6.00;;;;;;;-143.48;39.20;118439.88;5035921;28;20565;-76
2023/06/11 06:03:04;;;;;;;11.00;6.13;;;;;;;-143.48;38.98;118439.88;5035208;28;20041;-76
2023/06/11 06:05:29;;;;;;;10.43;5.93;;;;;;;-143.48;37.55;118439.88;5017368;28;20022;-76
2023/06/11 06:07:55;;;;;;;9.48;6.13;;;;;;;-143.48;39.45;118439.88;5017671;28;20025;-76
2023/06/11 06:10:21;;;;;;;11.57;6.28;;;;;;;-143.48;38.05;118439.88;5018170;28;20393;-76
2023/06/11 06:12:46;;;;;;;10.43;6.25;;;;;;;-143.48;37.83;118439.88;5035771;28;20108;-75
2023/06/11 06:15:11;;;;;;;9.50;6.10;;;;;;;-143.48;37.89;118439.88;5018003;28;20029;-76
2023/06/11 06:17:37;;;;;;;8.65;6.15;;;;;;;-143.48;37.22;118439.88;5035789;28;20025;-76
2023/06/11 06:20:02;;;;;;;11.50;5.78;;;;;;;-143.48;37.90;118439.88;5018077;28;20065;-76
2023/06/11 06:22:28;;;;;;;10.77;6.75;;;;;;;-143.48;36.59;118439.88;5035581;28;20029;-76
2023/06/11 06:24:53;;;;;;;9.57;6.60;;;;;;;-143.48;36.82;118439.88;5017852;28;20014;-76
2023/06/11 06:27:18;;;;;;;11.10;6.65;;;;;;;-143.48;36.41;118439.88;5017713;28;20384;-76
2023/06/11 06:29:44;;;;;;;11.18;6.63;;;;;;;-143.48;37.63;118439.88;5017549;28;20030;-75
2023/06/11 06:32:09;;;;;;;14.35;6.43;;;;;;;-143.48;37.47;118439.88;5035434;28;20513;-76
2023/06/11 06:34:35;;;;;;;9.45;6.60;;;;;;;-143.48;37.35;118439.88;5035410;28;20034;-75
2023/06/11 06:37:01;;;;;;;7.82;6.15;;;;;;;-143.48;37.18;118439.88;5017734;28;20025;-75
2023/06/11 06:39:27;;;;;;;8.80;6.07;;;;;;;-143.48;38.19;118439.88;5035282;28;20051;-76
2023/06/11 06:41:52;;;;;;;12.43;6.45;;;;;;;-143.48;39.30;118439.88;5017496;28;20032;-75
2023/06/11 06:44:17;;;;;;;11.85;6.50;;;;;;;-143.48;40.19;118439.88;5017368;28;20032;-76
2023/06/11 06:46:43;;;;;;;8.65;6.65;;;;;;;-143.48;41.60;118439.88;5017274;28;20021;-75
2023/06/11 06:49:08;;;;;;;9.85;6.15;;;;;;;-143.48;40.27;118439.88;5035204;28;20061;-75
2023/06/11 06:51:35;;;;;;;13.40;6.22;;;;;;;-143.48;39.66;118439.88;5034869;28;20032;-75
2023/06/11 06:54:01;;;;;;;11.25;6.18;;;;;;;-143.48;39.88;118439.88;5016915;28;20025;-75
2023/06/11 06:56:26;;;;;;;9.45;5.90;;;;;;;-143.48;39.40;118439.88;5016768;28;20052;-75
2023/06/11 06:58:52;;;;;;;10.27;6.28;;;;;;;-143.48;40.05;118439.88;5016938;28;20025;-75
2023/06/11 07:01:17;;;;;;;11.07;5.72;;;;;;;-143.48;39.50;118439.88;5034493;28;20049;-75
2023/06/11 07:03:42;;;;;;;7.70;5.85;;;;;;;-143.48;40.74;118439.88;5034579;28;20057;-75
2023/06/11 07:06:08;;;;;;;10.00;6.05;;;;;;;-143.48;38.63;118439.88;5016828;28;20128;-75
2023/06/11 07:08:34;;;;;;;8.00;5.82;;;;;;;-143.48;38.61;118439.88;5016697;28;20425;-75
2023/06/11 07:10:59;;;;;;;7.30;5.93;;;;;;;-143.48;38.72;118439.88;5034496;28;20033;-75
2023/06/11 07:13:25;;;;;;;9.75;5.95;;;;;;;-143.48;39.80;118439.88;5033648;28;20021;-76
2023/06/11 07:15:50;;;;;;;7.95;5.93;;;;;;;-143.48;39.56;118439.88;5016584;28;20079;-75
2023/06/11 07:18:16;;;;;;;9.20;5.53;;;;;;;-143.48;38.35;118439.88;5034143;28;20025;-76
2023/06/11 07:20:42;;;;;;;10.82;5.90;;;;;;;-143.48;38.83;118439.88;5016584;28;20030;-76
2023/06/11 07:23:07;;;;;;;11.82;6.03;;;;;;;-143.48;38.46;118439.88;5016427;28;20366;-76
2023/06/11 07:25:33;;;;;;;13.50;6.07;;;;;;;-143.48;38.61;118439.88;5034150;28;20098;-76
2023/06/11 07:28:01;;;;;;;14.00;5.57;;;;;;;-143.48;38.26;118439.88;5016385;28;20107;-75
2023/06/11 07:30:27;;;;;;;8.35;5.57;;;;;;;-143.48;38.87;118439.88;5016379;28;20079;-76
2023/06/11 07:32:53;;;;;;;10.27;6.13;;;;;;;-143.48;39.99;118439.88;5016326;28;20060;-75
2023/06/11 07:35:20;;;;;;;9.38;6.00;;;;;;;-143.48;40.10;118439.88;5034037;28;20051;-75
2023/06/11 07:37:45;;;;;;;11.13;6.05;;;;;;;-143.48;40.13;118439.88;5016221;28;20117;-76
2023/06/11 07:40:12;;;;;;;7.32;5.85;;;;;;;-143.48;39.55;118439.88;5016102;28;20049;-75
2023/06/11 07:42:37;;;;;;;6.57;5.63;;;;;;;-143.48;38.99;118439.88;5033901;28;20104;-75
2023/06/11 07:45:03;;;;;;;9.20;5.78;;;;;;;-143.48;38.83;118439.88;5016087;28;20049;-75
2023/06/11 07:47:28;;;;;;;7.68;5.68;;;;;;;-143.48;37.84;118439.88;5033758;28;20104;-75
2023/06/11 07:49:54;;;;;;;8.57;5.75;;;;;;;-143.48;38.97;118439.88;5033744;28;20036;-77
2023/06/11 07:52:20;;;;;;;8.50;5.68;;;;;;;-143.48;38.02;118439.88;5015955;28;20053;-75
2023/06/11 07:54:46;;;;;;;9.18;5.32;;;;;;;-143.48;38.26;118439.88;5033572;28;20570;-75
2023/06/11 07:57:12;;;;;;;11.73;5.75;;;;;;;-143.48;36.76;118439.88;5015881;28;20025;-75
2023/06/11 07:59:40;;;;;;;10.38;5.60;;;;;;;-143.48;37.84;118439.88;5015834;28;20404;-75
2023/06/11 08:02:06;;;;;;;7.72;5.80;;;;;;;-143.48;38.54;118439.88;5015649;28;20131;-76
2023/06/11 08:04:32;;;;;;;11.40;6.00;;;;;;;-143.48;38.55;118439.88;5033571;28;20052;-75
2023/06/11 08:06:57;;;;;;;9.65;5.53;;;;;;;-143.48;38.41;118439.88;5015656;28;20026;-75
2023/06/11 08:09:23;;;;;;;9.40;5.63;;;;;;;-143.48;36.69;118439.88;5015597;28;20387;-75
2023/06/11 08:11:48;;;;;;;10.88;5.30;;;;;;;-143.48;37.27;118439.88;5033468;28;20028;-74
2023/06/11 08:14:13;;;;;;;8.77;5.45;;;;;;;-143.48;36.10;118439.88;5033246;28;20060;-75
2023/06/11 08:16:39;;;;;;;8.75;5.65;;;;;;;-143.48;36.59;118439.88;5033571;28;20018;-76
2023/06/11 08:19:05;;;;;;;8.73;5.20;;;;;;;-143.48;36.64;118439.88;5015801;28;20155;-75
2023/06/11 08:21:30;;;;;;;12.15;5.80;;;;;;;-143.48;37.47;118439.88;5015659;28;20021;-76
2023/06/11 08:23:56;;;;;;;7.82;5.57;;;;;;;-143.48;36.59;118439.88;5033415;28;20033;-75
2023/06/11 08:26:21;;;;;;;8.70;5.32;;;;;;;-143.48;35.52;118439.88;5033038;28;20018;-75
2023/06/11 08:28:47;;;;;;;8.50;5.72;;;;;;;-143.48;36.31;118439.88;5033482;28;20535;-75
2023/06/11 08:31:12;;;;;;;9.98;5.45;;;;;;;-143.48;36.97;118439.88;5033151;28;20021;-75
2023/06/11 08:33:38;;;;;;;12.40;5.78;;;;;;;-143.48;36.65;118439.88;5015314;28;20033;-75
2023/06/11 08:36:03;;;;;;;9.88;5.70;;;;;;;-143.48;37.15;118439.88;5015402;28;20537;-75
2023/06/11 08:38:29;;;;;;;9.93;5.55;;;;;;;-143.48;35.99;118439.88;5015439;28;20036;-76
2023/06/11 08:40:55;;;;;;;11.32;5.75;;;;;;;-143.48;36.78;118439.88;5015405;28;20029;-75
2023/06/11 08:43:20;;;;;;;8.90;5.53;;;;;;;-143.48;35.72;118439.88;5015337;28;20063;-75
2023/06/11 08:45:46;;;;;;;11.82;5.40;;;;;;;-143.48;36.54;118439.88;5015459;28;20481;-76
2023/06/11 08:48:13;;;;;;;8.10;5.20;;;;;;;-143.48;36.54;118439.88;5033066;28;20025;-75
2023/06/11 08:50:38;;;;;;;8.48;5.68;;;;;;;-143.48;36.32;118439.88;5015361;28;20481;-75
2023/06/11 08:53:06;;;;;;;9.15;5.20;;;;;;;-143.48;35.19;118439.88;5032999;28;20025;-74
2023/06/11 08:55:31;;;;;;;12.88;5.30;;;;;;;-143.48;35.55;118439.88;5032868;28;20120;-74
2023/06/11 08:57:57;;;;;;;9.15;5.47;;;;;;;-143.48;35.85;118439.88;5014975;28;20528;-75
2023/06/11 09:00:22;;;;;;;10.15;5.40;;;;;;;-143.48;35.63;118439.88;5015386;28;20116;-75
2023/06/11 09:02:48;;;;;;;7.70;5.35;;;;;;;-143.48;34.74;118439.88;5032704;28;20045;-74
2023/06/11 09:05:14;;;;;;;10.10;5.03;;;;;;;-143.48;35.03;118439.88;5032854;28;20026;-74
2023/06/11 09:07:50;;;;;;;7.15;5.40;;;;;;;-143.48;35.27;118439.88;5015198;28;20055;-75
2023/06/11 09:10:17;;;;;;;7.15;5.10;;;;;;;-143.48;34.04;118439.88;5032799;28;20029;-75
2023/06/11 09:12:42;;;;;;;7.63;5.05;;;;;;;-143.48;34.07;118439.88;5032912;28;20033;-75
2023/06/11 09:15:07;;;;;;;9.15;5.10;;;;;;;-143.48;33.93;118439.88;5032715;28;20033;-75
2023/06/11 09:17:37;;;;;;;7.28;5.32;;;;;;;-143.48;34.56;118439.88;5015116;28;20133;-76
2023/06/11 09:20:06;;;;;;;6.63;5.38;;;;;;;-143.48;35.84;118439.88;5015148;28;20025;-75
2023/06/11 09:22:31;;;;;;;9.15;5.40;;;;;;;-143.48;33.92;118439.88;5015022;28;20071;-75
2023/06/11 09:24:57;;;;;;;7.80;4.93;;;;;;;-143.48;33.64;118439.88;5032833;28;20013;-75
2023/06/11 09:27:22;;;;;;;9.50;5.35;;;;;;;-143.48;34.58;118439.88;5032813;28;20052;-75
2023/06/11 09:29:48;;;;;;;7.68;5.10;;;;;;;-143.48;34.55;118439.88;5032845;28;20476;-75
2023/06/11 09:32:13;;;;;;;8.05;5.00;;;;;;;-143.48;33.84;118439.88;5014927;28;20491;-75
2023/06/11 09:34:40;;;;;;;9.95;5.07;;;;;;;-143.48;34.94;118439.88;5032592;28;20408;-77
2023/06/11 09:37:09;;;;;;;8.25;5.07;;;;;;;-143.48;33.78;118439.88;5016442;28;20032;-76
2023/06/11 09:39:34;;;;;;;6.30;4.95;;;;;;;-143.48;33.72;118439.88;5036351;28;20029;-76
2023/06/11 09:42:00;;;;;;;7.97;5.00;;;;;;;-143.48;33.89;118439.88;5018399;28;20032;-75
2023/06/11 09:44:27;;;;;;;6.70;4.70;;;;;;;-143.48;34.98;118439.88;5002096;28;20481;-75
2023/06/11 09:46:52;;;;;;;11.15;5.00;;;;;;;-143.48;34.97;118439.88;5036235;28;20477;-75
2023/06/11 09:49:20;;;;;;;6.85;4.78;;;;;;;-143.48;34.45;118439.88;5036198;28;20068;-75
2023/06/11 09:51:46;;;;;;;8.95;4.85;;;;;;;-143.48;34.56;118439.88;5018286;28;20079;-76
2023/06/11 09:54:14;;;;;;;7.50;4.72;;;;;;;-143.48;34.83;118439.88;5018324;28;20018;-76
2023/06/11 09:56:42;;;;;;;9.30;5.00;;;;;;;-143.48;33.96;118439.88;5035923;28;20105;-76
2023/06/11 09:59:10;;;;;;;9.07;5.53;;;;;;;-143.48;33.37;118439.88;5017972;28;20487;-76
2023/06/11 10:01:36;;;;;;;7.80;4.90;;;;;;;-143.48;33.14;118439.88;5035734;28;20073;-76
2023/06/11 10:04:02;;;;;;;8.43;4.78;;;;;;;-143.48;33.66;118439.88;5018110;28;20029;-76
2023/06/11 10:06:32;;;;;;;10.68;4.88;;;;;;;-143.48;33.38;118439.88;5018222;28;20013;-76
2023/06/11 10:09:00;;;;;;;9.52;4.82;;;;;;;-143.48;34.55;118439.88;5018185;28;20497;-76
2023/06/11 10:11:29;;;;;;;7.28;4.90;;;;;;;-143.48;32.68;118439.88;5035679;28;20477;-76
2023/06/11 10:14:01;;;;;;;7.95;5.07;;;;;;;-143.48;34.55;118439.88;5017938;28;20112;-76
2023/06/11 10:16:27;;;;;;;7.15;4.80;;;;;;;-143.48;33.59;118439.88;5017869;28;20034;-76
2023/06/11 10:19:06;;;;;;;8.07;5.05;;;;;;;-143.48;33.48;118439.88;5017784;28;20029;-76
2023/06/11 10:21:43;;;;;;;11.38;4.55;;;;;;;-143.48;33.11;118439.88;5017883;28;20171;-75
2023/06/11 10:24:23;;;;;;;5.78;4.55;;;;;;;-143.48;32.77;118439.88;5017745;28;20503;-76
2023/06/11 10:27:11;;;;;;;10.13;4.78;;;;;;;-143.48;32.66;118439.88;5035406;28;20017;-76
2023/06/11 10:29:48;;;;;;;8.13;4.72;;;;;;;-143.48;32.42;118439.88;5035330;28;20101;-75
2023/06/11 10:32:18;;;;;;;7.55;4.50;;;;;;;-143.48;32.73;118439.88;5017753;28;20419;-75
2023/06/11 10:34:45;;;;;;;8.27;4.80;;;;;;;-143.48;32.38;118439.88;5017340;28;20056;-75
2023/06/11 10:37:11;;;;;;;7.13;4.57;;;;;;;-143.48;31.92;118439.88;5035243;28;20026;-75
2023/06/11 10:39:49;;;;;;;8.27;4.70;;;;;;;-143.48;31.53;118439.88;5017443;28;20029;-75
2023/06/11 10:42:22;;;;;;;7.45;4.60;;;;;;;-143.48;31.99;118439.88;5035280;28;20032;-75
2023/06/11 10:44:49;;;;;;;7.10;4.40;;;;;;;-143.48;31.58;118439.88;5035367;28;20425;-75
2023/06/11 10:47:15;;;;;;;9.57;4.38;;;;;;;-143.48;32.21;118439.88;5035014;28;20056;-76
2023/06/11 10:49:40;;;;;;;7.60;4.20;;;;;;;-143.48;32.58;118439.88;5017245;28;20032;-76
2023/06/11 10:52:06;;;;;;;6.68;4.57;;;;;;;-143.48;32.97;118439.88;5017233;28;20437;-74
2023/06/11 10:54:33;;;;;;;9.05;4.63;;;;;;;-143.48;33.16;118439.88;5017153;28;20029;-75
2023/06/11 10:57:00;;;;;;;7.20;4.57;;;;;;;-143.48;33.53;118439.88;5034786;28;20422;-75
2023/06/11 10:59:26;;;;;;;11.00;4.78;;;;;;;-143.48;33.03;118439.88;5017034;28;20392;-75
2023/06/11 11:01:55;;;;;;;7.00;4.50;;;;;;;-143.48;32.96;118439.88;5034848;28;20049;-75